createdAt,value
2023-03-29T00:02:02.522Z,92.06
2023-03-29T00:04:53.358Z,93.23
2023-03-29T00:07:42.477Z,93.37
2023-03-29T00:10:32.207Z,93.00
2023-03-29T00:13:20.838Z,94.14
2023-03-29T00:16:10.024Z,93.95
2023-03-29T00:18:59.878Z,93.74
2023-03-29T00:21:48.301Z,92.42
2023-03-29T00:24:36.830Z,91.52
2023-03-29T00:27:25.369Z,92.23
2023-03-29T00:30:14.961Z,90.39
2023-03-29T00:33:03.845Z,90.70
2023-03-29T00:35:54.413Z,88.57
2023-03-29T00:38:43.078Z,88.83
2023-03-29T00:41:31.587Z,88.15
2023-03-29T00:44:57.437Z,86.74
2023-03-29T00:47:47.812Z,87.42
2023-03-29T00:50:39.732Z,87.67
2023-03-29T00:53:33.431Z,87.89
2023-03-29T00:56:24.957Z,88.21
2023-03-29T00:59:16.169Z,87.23
2023-03-29T01:02:05.775Z,86.72
2023-03-29T01:04:58.279Z,87.04
2023-03-29T01:07:50.382Z,86.75
2023-03-29T01:10:42.671Z,86.60
2023-03-29T01:13:37.067Z,87.07
2023-03-29T01:16:25.932Z,86.49
2023-03-29T01:19:19.024Z,86.01
2023-03-29T01:22:14.766Z,86.73
2023-03-29T01:25:11.190Z,86.28
2023-03-29T01:28:04.849Z,85.67
2023-03-29T01:30:55.923Z,86.00
2023-03-29T01:33:47.146Z,85.35
2023-03-29T01:36:40.469Z,85.19
2023-03-29T01:39:29.040Z,86.05
2023-03-29T01:42:27.328Z,85.00
2023-03-29T01:45:22.831Z,85.51
2023-03-29T01:48:16.508Z,85.78
2023-03-29T01:51:08.222Z,85.28
2023-03-29T01:54:00.362Z,85.46
2023-03-29T01:56:50.035Z,85.86
2023-03-29T01:59:42.074Z,86.60
2023-03-29T02:02:32.311Z,87.14
2023-03-29T02:05:22.374Z,87.83
2023-03-29T02:08:13.392Z,88.07
2023-03-29T02:11:02.533Z,87.89
2023-03-29T02:13:51.146Z,88.09
2023-03-29T02:16:40.368Z,88.58
2023-03-29T02:19:30.208Z,86.49
2023-03-29T02:22:23.117Z,85.03
2023-03-29T02:25:12.883Z,85.44
2023-03-29T02:28:01.797Z,85.35
2023-03-29T02:30:54.624Z,84.70
2023-03-29T02:33:46.596Z,86.14
2023-03-29T02:36:41.530Z,86.74
2023-03-29T02:39:31.734Z,87.51
2023-03-29T02:42:20.782Z,87.66
2023-03-29T02:45:10.699Z,88.44
2023-03-29T02:48:01.393Z,88.20
2023-03-29T02:50:52.198Z,88.50
2023-03-29T02:53:44.217Z,89.49
2023-03-29T02:56:43.217Z,89.80
2023-03-29T02:59:31.835Z,91.21
2023-03-29T03:02:20.677Z,91.96
2023-03-29T03:05:09.986Z,92.27
2023-03-29T03:07:59.308Z,92.38
2023-03-29T03:10:49.112Z,93.92
2023-03-29T03:13:37.666Z,94.63
2023-03-29T03:16:26.402Z,95.24
2023-03-29T03:19:15.295Z,95.99
2023-03-29T03:22:06.062Z,96.18
2023-03-29T03:24:55.888Z,96.95
2023-03-29T03:27:45.970Z,97.74
2023-03-29T03:30:34.883Z,98.68
2023-03-29T03:33:24.052Z,99.02
2023-03-29T03:36:12.610Z,100.00
2023-03-29T03:39:01.565Z,100.00
2023-03-29T03:41:50.028Z,100.00
2023-03-29T03:44:40.084Z,100.00
2023-03-29T03:47:29.216Z,100.00
2023-03-29T03:50:18.454Z,100.00
2023-03-29T03:53:07.114Z,100.00
2023-03-29T03:55:56.801Z,100.00
2023-03-29T03:58:45.729Z,100.00
2023-03-29T04:01:37.657Z,100.00
2023-03-29T04:04:26.743Z,100.00
2023-03-29T04:07:17.778Z,100.00
2023-03-29T04:10:08.930Z,100.00
2023-03-29T04:12:57.376Z,100.00
2023-03-29T04:15:46.097Z,100.00
2023-03-29T04:18:36.218Z,100.00
2023-03-29T04:21:24.966Z,100.00
2023-03-29T04:24:13.548Z,100.00
2023-03-29T04:27:02.002Z,100.00
2023-03-29T04:29:50.466Z,100.00
2023-03-29T04:32:39.132Z,100.00
2023-03-29T04:35:28.991Z,100.00
2023-03-29T04:38:17.517Z,100.00
2023-03-29T04:41:06.431Z,100.00
2023-03-29T04:43:56.027Z,100.00
2023-03-29T04:46:44.601Z,100.00
2023-03-29T04:49:33.526Z,100.00
2023-03-29T04:52:24.610Z,100.00
2023-03-29T04:55:13.233Z,100.00
2023-03-29T04:58:02.718Z,100.00
2023-03-29T05:00:51.527Z,100.00
2023-03-29T05:03:40.209Z,100.00
2023-03-29T05:06:29.130Z,100.00
2023-03-29T05:09:19.537Z,100.00
2023-03-29T05:12:08.389Z,100.00
2023-03-29T05:14:56.842Z,100.00
2023-03-29T05:17:45.355Z,100.00
2023-03-29T05:20:33.825Z,100.00
2023-03-29T05:23:22.570Z,100.00
2023-03-29T05:26:15.217Z,100.00
2023-03-29T05:29:04.344Z,100.00
2023-03-29T05:31:53.274Z,100.00
2023-03-29T05:34:42.174Z,100.00
2023-03-29T05:37:31.739Z,100.00
2023-03-29T05:40:20.500Z,100.00
2023-03-29T05:43:10.592Z,100.00
2023-03-29T05:45:59.262Z,100.00
2023-03-29T05:48:47.769Z,100.00
2023-03-29T05:51:36.328Z,100.00
2023-03-29T05:54:24.993Z,100.00
2023-03-29T05:57:13.469Z,100.00
2023-03-29T06:00:06.034Z,100.00
2023-03-29T06:02:59.295Z,100.00
2023-03-29T06:05:59.637Z,100.00
2023-03-29T06:08:48.759Z,100.00
2023-03-29T06:11:37.532Z,100.00
2023-03-29T06:14:27.158Z,100.00
2023-03-29T06:17:17.487Z,100.00
2023-03-29T06:20:10.752Z,100.00
2023-03-29T06:22:59.406Z,100.00
2023-03-29T06:25:48.730Z,99.46
2023-03-29T06:28:37.521Z,98.54
2023-03-29T06:31:26.240Z,98.87
2023-03-29T06:34:17.694Z,98.81
2023-03-29T06:37:06.812Z,98.90
2023-03-29T06:39:55.331Z,99.03
2023-03-29T06:42:45.015Z,99.61
2023-03-29T06:45:35.247Z,99.38
2023-03-29T06:48:23.966Z,99.08
2023-03-29T06:51:13.777Z,99.27
2023-03-29T06:54:02.267Z,97.17
2023-03-29T06:56:50.776Z,97.18
2023-03-29T06:59:39.356Z,96.76
2023-03-29T07:02:28.934Z,96.01
2023-03-29T07:05:17.609Z,93.95
2023-03-29T07:08:13.928Z,94.85
2023-03-29T07:11:03.527Z,95.18
2023-03-29T07:13:52.244Z,95.79
2023-03-29T07:16:41.121Z,95.38
2023-03-29T07:19:30.327Z,93.42
2023-03-29T07:22:19.368Z,93.79
2023-03-29T07:25:10.594Z,93.56
2023-03-29T07:27:59.070Z,92.69
2023-03-29T07:30:47.836Z,92.93
2023-03-29T07:33:36.405Z,92.87
2023-03-29T07:36:25.252Z,92.58
2023-03-29T07:39:15.401Z,90.84
2023-03-29T07:42:05.290Z,89.28
2023-03-29T07:44:54.253Z,89.87
2023-03-29T07:47:42.819Z,89.14
2023-03-29T07:50:32.541Z,89.39
2023-03-29T07:53:21.184Z,88.26
2023-03-29T07:56:10.178Z,86.36
2023-03-29T07:59:00.028Z,87.81
2023-03-29T08:01:48.928Z,87.47
2023-03-29T08:04:37.515Z,86.22
2023-03-29T08:07:33.857Z,85.50
2023-03-29T08:10:23.348Z,86.40
2023-03-29T08:13:12.420Z,85.79
2023-03-29T08:16:02.264Z,85.25
2023-03-29T08:18:51.145Z,85.02
2023-03-29T08:21:39.618Z,85.30
2023-03-29T08:24:28.282Z,83.88
2023-03-29T08:27:17.322Z,83.90
2023-03-29T08:30:07.877Z,84.00
2023-03-29T08:32:58.021Z,83.19
2023-03-29T08:35:46.906Z,83.91
2023-03-29T08:38:35.443Z,82.24
2023-03-29T08:41:33.122Z,82.42
2023-03-29T08:44:31.040Z,83.26
2023-03-29T08:47:22.768Z,82.85
2023-03-29T08:50:13.737Z,81.48
2023-03-29T08:53:05.952Z,80.16
2023-03-29T08:55:56.766Z,79.62
2023-03-29T08:58:46.546Z,78.11
2023-03-29T09:01:36.768Z,76.02
2023-03-29T09:04:28.202Z,76.11
2023-03-29T09:07:18.098Z,76.05
2023-03-29T09:10:07.088Z,74.79
2023-03-29T09:13:06.191Z,73.64
2023-03-29T09:16:00.566Z,72.01
2023-03-29T09:18:56.553Z,71.76
2023-03-29T09:21:47.512Z,69.83
2023-03-29T09:24:57.853Z,68.97
2023-03-29T09:27:49.950Z,67.43
2023-03-29T09:30:41.589Z,65.84
2023-03-29T09:33:32.620Z,65.90
2023-03-29T09:36:25.836Z,61.39
2023-03-29T09:39:16.249Z,59.97
2023-03-29T09:42:08.900Z,59.28
2023-03-29T09:45:01.996Z,58.45
2023-03-29T09:47:53.326Z,57.74
2023-03-29T09:50:43.767Z,55.18
2023-03-29T09:53:32.252Z,54.71
2023-03-29T09:56:21.486Z,55.97
2023-03-29T09:59:13.470Z,55.60
2023-03-29T10:02:08.647Z,55.26
2023-03-29T10:05:01.040Z,54.67
2023-03-29T10:07:52.932Z,51.99
2023-03-29T10:10:41.637Z,53.25
2023-03-29T10:13:31.652Z,53.09
2023-03-29T10:16:23.227Z,53.13
2023-03-29T10:19:18.440Z,54.17
2023-03-29T10:22:09.181Z,52.63
2023-03-29T10:24:58.188Z,51.91
2023-03-29T10:27:47.760Z,52.83
2023-03-29T10:30:38.610Z,51.26
2023-03-29T10:33:31.996Z,51.21
2023-03-29T10:36:20.829Z,50.33
2023-03-29T10:39:11.697Z,49.41
2023-03-29T10:42:00.593Z,47.69
2023-03-29T10:44:54.613Z,46.45
2023-03-29T10:47:45.993Z,46.63
2023-03-29T10:50:38.054Z,48.06
2023-03-29T10:53:28.483Z,45.08
2023-03-29T10:56:40.188Z,47.30
2023-03-29T10:59:30.234Z,45.46
2023-03-29T11:02:54.573Z,46.08
2023-03-29T11:05:49.142Z,45.83
2023-03-29T11:08:48.925Z,47.49
2023-03-29T11:12:15.159Z,45.22
2023-03-29T11:15:16.436Z,44.15
2023-03-29T11:18:30.312Z,45.34
2023-03-29T11:21:26.058Z,44.88
2023-03-29T11:24:46.824Z,44.01
2023-03-29T11:27:39.991Z,45.37
2023-03-29T11:30:32.095Z,44.40
2023-03-29T11:33:34.605Z,44.88
2023-03-29T11:36:26.881Z,44.04
2023-03-29T11:39:19.443Z,43.13
2023-03-29T11:42:12.752Z,44.33
2023-03-29T11:45:04.889Z,44.55
2023-03-29T11:47:54.082Z,45.49
2023-03-29T11:50:45.977Z,44.62
2023-03-29T11:53:42.662Z,45.52
2023-03-29T11:56:35.231Z,45.10
2023-03-29T11:59:27.421Z,46.28
2023-03-29T12:02:21.216Z,45.89
2023-03-29T12:05:13.219Z,45.45
2023-03-29T12:08:04.455Z,43.80
2023-03-29T12:10:59.215Z,43.79
2023-03-29T12:13:52.459Z,44.45
2023-03-29T12:16:43.931Z,43.44
2023-03-29T12:19:39.609Z,44.82
2023-03-29T12:22:29.574Z,45.36
2023-03-29T12:25:21.918Z,44.95
2023-03-29T12:28:27.992Z,45.41
2023-03-29T12:31:20.877Z,46.58
2023-03-29T12:34:21.959Z,46.48
2023-03-29T12:37:33.256Z,46.95
2023-03-29T12:40:24.163Z,47.90
2023-03-29T12:43:20.609Z,47.22
2023-03-29T12:46:10.351Z,48.41
2023-03-29T12:49:05.779Z,48.72
2023-03-29T12:51:55.584Z,49.44
2023-03-29T12:54:54.298Z,49.95
2023-03-29T12:57:45.658Z,51.32
2023-03-29T13:00:44.953Z,50.17
2023-03-29T13:03:42.432Z,52.83
2023-03-29T13:06:33.753Z,51.80
2023-03-29T13:09:23.910Z,52.06
2023-03-29T13:12:22.735Z,53.15
2023-03-29T13:15:23.824Z,54.55
2023-03-29T13:18:33.984Z,55.37
2023-03-29T13:21:26.285Z,56.98
2023-03-29T13:24:30.240Z,58.38
2023-03-29T13:27:26.179Z,59.91
2023-03-29T13:30:24.469Z,60.43
2023-03-29T13:33:26.424Z,61.61
2023-03-29T13:36:18.390Z,61.83
2023-03-29T13:39:07.827Z,62.98
2023-03-29T13:42:09.179Z,62.83
2023-03-29T13:45:06.781Z,62.68
2023-03-29T13:48:05.433Z,62.88
2023-03-29T13:50:57.593Z,63.79
2023-03-29T13:53:50.514Z,64.29
2023-03-29T13:56:43.222Z,64.13
2023-03-29T13:59:39.544Z,65.13
2023-03-29T14:02:39.374Z,65.87
2023-03-29T14:05:31.487Z,65.60
2023-03-29T14:08:25.428Z,65.30
2023-03-29T14:11:23.239Z,63.52
2023-03-29T14:14:12.634Z,63.09
2023-03-29T14:17:02.250Z,63.15
2023-03-29T14:19:51.413Z,63.17
2023-03-29T14:22:39.908Z,62.56
2023-03-29T14:25:30.547Z,62.21
2023-03-29T14:28:23.229Z,62.48
2023-03-29T14:31:18.599Z,61.78
2023-03-29T14:34:08.817Z,61.11
2023-03-29T14:36:58.454Z,61.86
2023-03-29T14:39:47.187Z,61.12
2023-03-29T14:42:38.721Z,60.39
2023-03-29T14:45:27.227Z,61.65
2023-03-29T14:48:16.446Z,60.84
2023-03-29T14:51:06.385Z,59.40
2023-03-29T14:53:54.896Z,60.87
2023-03-29T14:56:43.473Z,61.40
2023-03-29T14:59:38.086Z,61.10
2023-03-29T15:02:28.477Z,60.48
2023-03-29T15:05:26.245Z,59.92
2023-03-29T15:08:17.861Z,60.55
2023-03-29T15:11:13.993Z,59.22
2023-03-29T15:14:04.331Z,58.76
2023-03-29T15:16:57.150Z,59.60
2023-03-29T15:19:45.847Z,59.70
2023-03-29T15:22:35.199Z,59.89
2023-03-29T15:25:23.693Z,60.28
2023-03-29T15:28:26.091Z,60.50
2023-03-29T15:31:19.221Z,60.73
2023-03-29T15:34:12.793Z,60.47
2023-03-29T15:37:02.446Z,60.78
2023-03-29T15:39:51.017Z,61.03
2023-03-29T15:42:39.547Z,60.33
2023-03-29T15:45:28.026Z,60.43
2023-03-29T15:48:25.010Z,61.43
2023-03-29T15:51:14.948Z,59.66
2023-03-29T15:54:03.526Z,58.55
2023-03-29T15:56:54.319Z,57.65
2023-03-29T15:59:43.515Z,57.80
2023-03-29T16:02:32.185Z,58.65
2023-03-29T16:05:20.812Z,58.67
2023-03-29T16:08:12.158Z,57.80
2023-03-29T16:11:00.746Z,57.29
2023-03-29T16:13:49.392Z,57.93
2023-03-29T16:16:37.978Z,56.86
2023-03-29T16:19:27.202Z,56.19
2023-03-29T16:22:15.739Z,56.69
2023-03-29T16:25:08.352Z,57.12
2023-03-29T16:27:56.816Z,59.30
2023-03-29T16:30:45.411Z,60.51
2023-03-29T16:33:34.125Z,60.20
2023-03-29T16:36:22.691Z,60.65
2023-03-29T16:39:12.853Z,60.68
2023-03-29T16:42:02.695Z,60.57
2023-03-29T16:44:51.423Z,61.16
2023-03-29T16:47:40.217Z,61.44
2023-03-29T16:50:29.005Z,62.06
2023-03-29T16:53:18.286Z,62.28
2023-03-29T16:56:07.923Z,62.10
2023-03-29T16:58:57.761Z,61.96
2023-03-29T17:01:46.337Z,62.31
2023-03-29T17:04:34.989Z,62.72
2023-03-29T17:07:23.593Z,63.48
2023-03-29T17:10:12.917Z,63.92
2023-03-29T17:13:01.472Z,64.65
2023-03-29T17:15:52.351Z,64.86
2023-03-29T17:18:40.953Z,64.78
2023-03-29T17:21:29.745Z,64.54
2023-03-29T17:24:18.216Z,64.94
2023-03-29T17:27:07.046Z,64.71
2023-03-29T17:29:55.619Z,65.33
2023-03-29T17:32:45.748Z,65.65
2023-03-29T17:35:34.519Z,65.84
2023-03-29T17:38:23.057Z,66.21
2023-03-29T17:41:11.664Z,67.14
2023-03-29T17:44:01.151Z,67.53
2023-03-29T17:46:49.728Z,68.44
2023-03-29T17:49:39.545Z,69.17
2023-03-29T17:52:28.085Z,69.72
2023-03-29T17:55:16.934Z,70.61
2023-03-29T17:58:05.568Z,70.82
2023-03-29T18:00:54.124Z,72.25
2023-03-29T18:03:43.296Z,73.24
2023-03-29T18:06:33.101Z,73.02
2023-03-29T18:09:21.611Z,74.23
2023-03-29T18:12:10.172Z,74.47
2023-03-29T18:14:59.019Z,74.63
2023-03-29T18:17:47.850Z,75.25
2023-03-29T18:20:36.371Z,75.17
2023-03-29T18:23:26.227Z,74.71
2023-03-29T18:26:15.922Z,74.89
2023-03-29T18:29:04.546Z,75.33
2023-03-29T18:31:53.040Z,75.49
2023-03-29T18:34:41.845Z,75.83
2023-03-29T18:37:30.360Z,75.71
2023-03-29T18:40:24.616Z,75.97
2023-03-29T18:43:13.153Z,76.83
2023-03-29T18:46:02.134Z,77.36
2023-03-29T18:48:51.042Z,77.27
2023-03-29T18:51:39.661Z,77.60
2023-03-29T18:54:28.211Z,77.39
2023-03-29T18:57:18.001Z,77.57
2023-03-29T19:00:12.406Z,77.35
2023-03-29T19:14:39.133Z,78.07
2023-03-29T19:17:28.804Z,78.11
2023-03-29T19:20:17.618Z,77.95
2023-03-29T19:23:06.294Z,77.96
2023-03-29T19:25:55.289Z,78.16
2023-03-29T19:28:43.788Z,78.25
2023-03-29T19:31:37.702Z,77.83
2023-03-29T19:34:26.657Z,77.74
2023-03-29T19:37:16.890Z,77.77
2023-03-29T19:40:08.138Z,77.83
2023-03-29T19:42:56.626Z,78.36
2023-03-29T19:45:45.417Z,78.80
2023-03-29T19:48:35.319Z,79.55
2023-03-29T19:51:26.682Z,80.49
2023-03-29T19:54:17.264Z,80.70
2023-03-29T19:57:07.280Z,80.55
2023-03-29T19:59:55.831Z,80.70
2023-03-29T20:02:44.330Z,80.76
2023-03-29T20:05:35.898Z,79.89
2023-03-29T20:08:24.741Z,79.79
2023-03-29T20:11:14.087Z,79.93
2023-03-29T20:14:02.615Z,80.85
2023-03-29T20:16:52.289Z,80.90
2023-03-29T20:19:44.184Z,81.13
2023-03-29T20:22:34.054Z,81.54
2023-03-29T20:25:22.585Z,81.43
2023-03-29T20:28:12.851Z,81.36
2023-03-29T20:31:04.863Z,81.16
2023-03-29T20:33:53.705Z,80.77
2023-03-29T20:36:42.348Z,80.91
2023-03-29T20:39:32.361Z,80.95
2023-03-29T20:42:28.503Z,81.17
2023-03-29T20:45:19.317Z,81.48
2023-03-29T20:48:07.965Z,81.87
2023-03-29T20:50:57.691Z,82.18
2023-03-29T20:53:46.573Z,81.56
2023-03-29T20:56:38.564Z,81.44
2023-03-29T20:59:27.529Z,81.43
2023-03-29T21:02:18.844Z,81.43
2023-03-29T21:05:08.587Z,82.02
2023-03-29T21:07:57.535Z,81.87
2023-03-29T21:10:47.725Z,81.91
2023-03-29T21:13:37.560Z,82.49
2023-03-29T21:16:29.029Z,81.28
2023-03-29T21:19:19.571Z,79.97
2023-03-29T21:22:09.006Z,78.98
2023-03-29T21:24:57.438Z,78.59
2023-03-29T21:27:45.965Z,78.33
2023-03-29T21:30:35.991Z,78.54
2023-03-29T21:33:24.604Z,77.94
2023-03-29T21:36:13.102Z,78.43
2023-03-29T21:39:01.679Z,79.63
2023-03-29T21:41:52.278Z,81.16
2023-03-29T21:44:40.790Z,82.74
2023-03-29T21:47:31.007Z,82.58
2023-03-29T21:50:19.697Z,83.45
2023-03-29T21:53:08.489Z,83.79
2023-03-29T21:55:56.974Z,84.28
2023-03-29T21:58:45.553Z,84.85
2023-03-29T22:01:34.160Z,85.88
2023-03-29T22:04:35.780Z,86.02
2023-03-29T22:07:25.226Z,86.26
2023-03-29T22:10:13.983Z,86.87
2023-03-29T22:13:03.098Z,87.69
2023-03-29T22:15:59.139Z,87.68
2023-03-29T22:18:49.658Z,87.49
2023-03-29T22:21:39.816Z,87.77
2023-03-29T22:24:28.948Z,88.13
2023-03-29T22:27:17.401Z,88.23
2023-03-29T22:30:08.048Z,87.74
2023-03-29T22:32:56.576Z,87.98
2023-03-29T22:35:45.123Z,87.98
2023-03-29T22:38:35.007Z,88.21
2023-03-29T22:41:25.983Z,88.26
2023-03-29T22:44:14.523Z,88.41
2023-03-29T22:47:03.006Z,88.54
2023-03-29T22:49:51.541Z,88.75
2023-03-29T22:52:40.027Z,89.30
2023-03-29T22:55:29.799Z,89.95
2023-03-29T22:58:18.250Z,90.42
2023-03-29T23:01:07.609Z,90.92
2023-03-29T23:03:56.330Z,91.26
2023-03-29T23:06:44.940Z,91.17
2023-03-29T23:09:33.653Z,91.40
2023-03-29T23:12:24.477Z,92.37
2023-03-29T23:15:13.514Z,93.41
2023-03-29T23:18:02.230Z,94.16
2023-03-29T23:20:52.380Z,94.76
2023-03-29T23:23:41.077Z,94.65
2023-03-29T23:26:29.505Z,94.37
2023-03-29T23:29:19.294Z,94.45
2023-03-29T23:32:08.054Z,93.49
2023-03-29T23:34:56.490Z,93.13
2023-03-29T23:37:45.084Z,91.41
2023-03-29T23:40:33.984Z,89.16
2023-03-29T23:43:22.681Z,85.02
2023-03-29T23:46:14.132Z,82.09
2023-03-29T23:49:03.178Z,80.97
2023-03-29T23:51:51.594Z,78.85
2023-03-29T23:54:40.069Z,75.36
2023-03-29T23:57:28.699Z,74.99
